sensor_id;sensor_type;location;lat;lon;timestamp;P1;durP1;ratioP1;P2;durP2;ratioP2
38853;SDS011;24606;51.992;4.198;2023-06-19T00:04:38;2.00;;;1.80;;
38853;SDS011;24606;51.992;4.198;2023-06-19T00:09:40;2.25;;;1.83;;
38853;SDS011;24606;51.992;4.198;2023-06-19T00:14:43;2.80;;;1.77;;
38853;SDS011;24606;51.992;4.198;2023-06-19T00:19:45;3.47;;;1.30;;
38853;SDS011;24606;51.992;4.198;2023-06-19T00:24:48;2.17;;;1.20;;
38853;SDS011;24606;51.992;4.198;2023-06-19T00:29:53;1.80;;;1.48;;
38853;SDS011;24606;51.992;4.198;2023-06-19T00:34:57;1.75;;;1.30;;
38853;SDS011;24606;51.992;4.198;2023-06-19T00:40:01;2.08;;;1.40;;
38853;SDS011;24606;51.992;4.198;2023-06-19T00:45:05;1.65;;;1.10;;
38853;SDS011;24606;51.992;4.198;2023-06-19T00:50:08;1.65;;;1.30;;
38853;SDS011;24606;51.992;4.198;2023-06-19T00:55:10;2.50;;;1.30;;
38853;SDS011;24606;51.992;4.198;2023-06-19T01:00:14;4.80;;;1.30;;
38853;SDS011;24606;51.992;4.198;2023-06-19T01:05:18;1.77;;;1.10;;
38853;SDS011;24606;51.992;4.198;2023-06-19T01:10:24;2.97;;;1.10;;
38853;SDS011;24606;51.992;4.198;2023-06-19T01:15:30;2.60;;;1.50;;
38853;SDS011;24606;51.992;4.198;2023-06-19T01:20:33;3.42;;;1.23;;
38853;SDS011;24606;51.992;4.198;2023-06-19T01:25:39;2.10;;;1.65;;
38853;SDS011;24606;51.992;4.198;2023-06-19T01:30:41;3.55;;;1.30;;
38853;SDS011;24606;51.992;4.198;2023-06-19T01:35:44;1.83;;;1.50;;
38853;SDS011;24606;51.992;4.198;2023-06-19T01:40:49;4.38;;;2.78;;
38853;SDS011;24606;51.992;4.198;2023-06-19T01:45:51;1.63;;;1.30;;
38853;SDS011;24606;51.992;4.198;2023-06-19T01:50:53;2.30;;;1.67;;
38853;SDS011;24606;51.992;4.198;2023-06-19T01:55:57;3.45;;;2.13;;
38853;SDS011;24606;51.992;4.198;2023-06-19T02:00:59;3.05;;;2.13;;
38853;SDS011;24606;51.992;4.198;2023-06-19T02:06:01;4.65;;;2.17;;
38853;SDS011;24606;51.992;4.198;2023-06-19T02:11:05;3.83;;;3.10;;
38853;SDS011;24606;51.992;4.198;2023-06-19T02:16:08;5.38;;;3.50;;
38853;SDS011;24606;51.992;4.198;2023-06-19T02:21:10;9.02;;;6.75;;
38853;SDS011;24606;51.992;4.198;2023-06-19T02:26:13;9.45;;;6.60;;
38853;SDS011;24606;51.992;4.198;2023-06-19T02:31:15;8.73;;;4.57;;
38853;SDS011;24606;51.992;4.198;2023-06-19T02:36:17;10.20;;;7.90;;
38853;SDS011;24606;51.992;4.198;2023-06-19T02:41:21;15.20;;;10.02;;
38853;SDS011;24606;51.992;4.198;2023-06-19T02:46:23;12.73;;;8.23;;
38853;SDS011;24606;51.992;4.198;2023-06-19T02:51:24;7.53;;;4.63;;
38853;SDS011;24606;51.992;4.198;2023-06-19T02:56:28;13.32;;;8.45;;
38853;SDS011;24606;51.992;4.198;2023-06-19T03:15:27;11.70;;;6.95;;
38853;SDS011;24606;51.992;4.198;2023-06-19T03:20:29;13.23;;;8.38;;
38853;SDS011;24606;51.992;4.198;2023-06-19T03:25:31;14.10;;;9.98;;
38853;SDS011;24606;51.992;4.198;2023-06-19T03:30:36;10.80;;;6.30;;
38853;SDS011;24606;51.992;4.198;2023-06-19T03:35:38;10.93;;;6.85;;
38853;SDS011;24606;51.992;4.198;2023-06-19T03:40:40;10.23;;;4.40;;
38853;SDS011;24606;51.992;4.198;2023-06-19T03:45:44;8.18;;;4.78;;
38853;SDS011;24606;51.992;4.198;2023-06-19T03:50:46;8.65;;;4.78;;
38853;SDS011;24606;51.992;4.198;2023-06-19T03:55:47;6.90;;;4.35;;
38853;SDS011;24606;51.992;4.198;2023-06-19T04:00:51;9.00;;;4.90;;
38853;SDS011;24606;51.992;4.198;2023-06-19T04:05:53;11.18;;;5.38;;
38853;SDS011;24606;51.992;4.198;2023-06-19T04:10:55;8.23;;;4.65;;
38853;SDS011;24606;51.992;4.198;2023-06-19T04:15:58;6.50;;;3.83;;
38853;SDS011;24606;51.992;4.198;2023-06-19T04:21:00;4.50;;;3.00;;
38853;SDS011;24606;51.992;4.198;2023-06-19T04:26:02;6.57;;;2.92;;
38853;SDS011;24606;51.992;4.198;2023-06-19T04:31:05;15.40;;;8.20;;
38853;SDS011;24606;51.992;4.198;2023-06-19T04:36:07;23.02;;;11.27;;
38853;SDS011;24606;51.992;4.198;2023-06-19T04:41:10;16.23;;;9.13;;
38853;SDS011;24606;51.992;4.198;2023-06-19T04:46:13;16.05;;;8.40;;
38853;SDS011;24606;51.992;4.198;2023-06-19T04:51:20;18.85;;;10.73;;
38853;SDS011;24606;51.992;4.198;2023-06-19T05:01:25;11.32;;;6.90;;
38853;SDS011;24606;51.992;4.198;2023-06-19T05:06:28;9.60;;;5.45;;
38853;SDS011;24606;51.992;4.198;2023-06-19T05:11:30;10.80;;;4.90;;
38853;SDS011;24606;51.992;4.198;2023-06-19T05:16:34;13.27;;;7.88;;
38853;SDS011;24606;51.992;4.198;2023-06-19T05:21:36;14.73;;;8.18;;
38853;SDS011;24606;51.992;4.198;2023-06-19T05:26:38;8.88;;;4.90;;
38853;SDS011;24606;51.992;4.198;2023-06-19T05:31:41;11.98;;;6.45;;
38853;SDS011;24606;51.992;4.198;2023-06-19T05:36:43;9.48;;;4.43;;
38853;SDS011;24606;51.992;4.198;2023-06-19T05:41:47;7.28;;;3.72;;
38853;SDS011;24606;51.992;4.198;2023-06-19T05:46:51;7.72;;;4.70;;
38853;SDS011;24606;51.992;4.198;2023-06-19T05:51:52;14.00;;;8.23;;
38853;SDS011;24606;51.992;4.198;2023-06-19T05:56:59;12.07;;;6.40;;
38853;SDS011;24606;51.992;4.198;2023-06-19T06:02:02;11.40;;;4.95;;
38853;SDS011;24606;51.992;4.198;2023-06-19T06:07:05;11.60;;;6.05;;
38853;SDS011;24606;51.992;4.198;2023-06-19T06:12:08;11.40;;;7.38;;
38853;SDS011;24606;51.992;4.198;2023-06-19T06:17:11;10.27;;;5.72;;
38853;SDS011;24606;51.992;4.198;2023-06-19T06:22:13;12.57;;;6.85;;
38853;SDS011;24606;51.992;4.198;2023-06-19T06:27:15;17.92;;;7.75;;
38853;SDS011;24606;51.992;4.198;2023-06-19T06:32:19;13.80;;;7.68;;
38853;SDS011;24606;51.992;4.198;2023-06-19T06:37:21;10.40;;;4.75;;
38853;SDS011;24606;51.992;4.198;2023-06-19T06:42:23;10.07;;;5.60;;
38853;SDS011;24606;51.992;4.198;2023-06-19T06:47:26;6.35;;;3.40;;
38853;SDS011;24606;51.992;4.198;2023-06-19T06:52:28;8.95;;;5.00;;
38853;SDS011;24606;51.992;4.198;2023-06-19T06:57:30;11.48;;;7.00;;
38853;SDS011;24606;51.992;4.198;2023-06-19T07:02:33;6.13;;;3.88;;
38853;SDS011;24606;51.992;4.198;2023-06-19T07:07:35;11.98;;;7.53;;
38853;SDS011;24606;51.992;4.198;2023-06-19T07:12:44;15.95;;;7.43;;
38853;SDS011;24606;51.992;4.198;2023-06-19T07:17:47;7.53;;;4.13;;
38853;SDS011;24606;51.992;4.198;2023-06-19T07:22:50;9.00;;;5.85;;
38853;SDS011;24606;51.992;4.198;2023-06-19T07:27:53;11.60;;;6.25;;
38853;SDS011;24606;51.992;4.198;2023-06-19T07:32:56;12.18;;;7.55;;
38853;SDS011;24606;51.992;4.198;2023-06-19T07:37:58;11.98;;;6.57;;
38853;SDS011;24606;51.992;4.198;2023-06-19T07:43:00;9.98;;;7.13;;
38853;SDS011;24606;51.992;4.198;2023-06-19T07:48:03;11.93;;;5.43;;
38853;SDS011;24606;51.992;4.198;2023-06-19T07:53:05;11.10;;;5.05;;
38853;SDS011;24606;51.992;4.198;2023-06-19T07:58:07;10.93;;;5.60;;
38853;SDS011;24606;51.992;4.198;2023-06-19T08:08:12;12.82;;;5.63;;
38853;SDS011;24606;51.992;4.198;2023-06-19T08:13:14;7.50;;;4.60;;
38853;SDS011;24606;51.992;4.198;2023-06-19T08:18:20;8.80;;;3.97;;
38853;SDS011;24606;51.992;4.198;2023-06-19T08:23:21;12.05;;;5.50;;
38853;SDS011;24606;51.992;4.198;2023-06-19T08:28:23;9.07;;;5.07;;
38853;SDS011;24606;51.992;4.198;2023-06-19T08:33:26;9.32;;;4.53;;
38853;SDS011;24606;51.992;4.198;2023-06-19T08:38:28;11.10;;;4.97;;
38853;SDS011;24606;51.992;4.198;2023-06-19T08:43:30;8.18;;;3.92;;
38853;SDS011;24606;51.992;4.198;2023-06-19T08:48:35;11.73;;;4.88;;
38853;SDS011;24606;51.992;4.198;2023-06-19T08:53:46;14.20;;;7.43;;
38853;SDS011;24606;51.992;4.198;2023-06-19T08:58:50;7.55;;;4.55;;
38853;SDS011;24606;51.992;4.198;2023-06-19T09:03:53;12.25;;;7.03;;
38853;SDS011;24606;51.992;4.198;2023-06-19T09:08:58;7.53;;;4.25;;
38853;SDS011;24606;51.992;4.198;2023-06-19T09:14:00;10.05;;;4.80;;
38853;SDS011;24606;51.992;4.198;2023-06-19T09:19:04;10.00;;;4.65;;
38853;SDS011;24606;51.992;4.198;2023-06-19T09:24:06;10.88;;;6.45;;
38853;SDS011;24606;51.992;4.198;2023-06-19T09:29:09;9.45;;;5.80;;
38853;SDS011;24606;51.992;4.198;2023-06-19T09:34:14;10.15;;;4.38;;
38853;SDS011;24606;51.992;4.198;2023-06-19T09:39:16;8.80;;;4.00;;
38853;SDS011;24606;51.992;4.198;2023-06-19T09:44:19;8.40;;;4.97;;
38853;SDS011;24606;51.992;4.198;2023-06-19T09:49:25;8.88;;;4.50;;
38853;SDS011;24606;51.992;4.198;2023-06-19T09:54:32;13.05;;;6.38;;
38853;SDS011;24606;51.992;4.198;2023-06-19T09:59:35;11.32;;;4.13;;
38853;SDS011;24606;51.992;4.198;2023-06-19T10:04:46;7.25;;;5.40;;
38853;SDS011;24606;51.992;4.198;2023-06-19T10:09:57;13.20;;;6.15;;
38853;SDS011;24606;51.992;4.198;2023-06-19T10:15:06;9.48;;;4.63;;
38853;SDS011;24606;51.992;4.198;2023-06-19T10:20:27;9.35;;;4.55;;
38853;SDS011;24606;51.992;4.198;2023-06-19T10:25:32;6.22;;;3.55;;
38853;SDS011;24606;51.992;4.198;2023-06-19T10:30:35;6.88;;;3.70;;
38853;SDS011;24606;51.992;4.198;2023-06-19T10:35:38;6.90;;;4.60;;
38853;SDS011;24606;51.992;4.198;2023-06-19T10:40:41;7.82;;;5.28;;
38853;SDS011;24606;51.992;4.198;2023-06-19T10:45:43;9.60;;;5.00;;
38853;SDS011;24606;51.992;4.198;2023-06-19T10:50:47;13.90;;;6.03;;
38853;SDS011;24606;51.992;4.198;2023-06-19T10:55:53;7.43;;;4.50;;
38853;SDS011;24606;51.992;4.198;2023-06-19T11:00:56;10.32;;;5.50;;
38853;SDS011;24606;51.992;4.198;2023-06-19T11:06:00;8.38;;;4.78;;
38853;SDS011;24606;51.992;4.198;2023-06-19T11:11:02;13.35;;;7.68;;
38853;SDS011;24606;51.992;4.198;2023-06-19T11:16:04;10.77;;;7.85;;
38853;SDS011;24606;51.992;4.198;2023-06-19T11:21:08;12.70;;;8.00;;
38853;SDS011;24606;51.992;4.198;2023-06-19T11:26:10;13.85;;;8.23;;
38853;SDS011;24606;51.992;4.198;2023-06-19T11:31:12;13.30;;;7.95;;
38853;SDS011;24606;51.992;4.198;2023-06-19T11:36:17;16.42;;;9.85;;
38853;SDS011;24606;51.992;4.198;2023-06-19T11:41:26;14.27;;;7.50;;
38853;SDS011;24606;51.992;4.198;2023-06-19T11:46:29;10.20;;;7.25;;
38853;SDS011;24606;51.992;4.198;2023-06-19T11:51:32;8.02;;;6.00;;
38853;SDS011;24606;51.992;4.198;2023-06-19T11:56:34;9.05;;;5.57;;
38853;SDS011;24606;51.992;4.198;2023-06-19T12:01:37;10.20;;;5.50;;
38853;SDS011;24606;51.992;4.198;2023-06-19T12:06:40;6.95;;;4.47;;
38853;SDS011;24606;51.992;4.198;2023-06-19T12:11:42;7.55;;;3.67;;
38853;SDS011;24606;51.992;4.198;2023-06-19T12:16:45;6.55;;;3.80;;
38853;SDS011;24606;51.992;4.198;2023-06-19T12:21:48;5.07;;;3.80;;
38853;SDS011;24606;51.992;4.198;2023-06-19T12:26:51;5.38;;;3.50;;
38853;SDS011;24606;51.992;4.198;2023-06-19T12:31:58;7.50;;;4.03;;
38853;SDS011;24606;51.992;4.198;2023-06-19T12:37:03;7.50;;;3.90;;
38853;SDS011;24606;51.992;4.198;2023-06-19T12:42:05;5.15;;;3.80;;
38853;SDS011;24606;51.992;4.198;2023-06-19T12:47:07;6.40;;;3.70;;
38853;SDS011;24606;51.992;4.198;2023-06-19T12:52:11;8.68;;;4.15;;
38853;SDS011;24606;51.992;4.198;2023-06-19T12:57:13;9.52;;;3.85;;
38853;SDS011;24606;51.992;4.198;2023-06-19T13:02:15;6.90;;;4.28;;
38853;SDS011;24606;51.992;4.198;2023-06-19T13:07:18;7.07;;;4.25;;
38853;SDS011;24606;51.992;4.198;2023-06-19T13:12:21;8.05;;;4.65;;
38853;SDS011;24606;51.992;4.198;2023-06-19T13:17:23;6.35;;;4.45;;
38853;SDS011;24606;51.992;4.198;2023-06-19T13:22:27;6.38;;;4.43;;
38853;SDS011;24606;51.992;4.198;2023-06-19T13:27:28;5.88;;;3.83;;
38853;SDS011;24606;51.992;4.198;2023-06-19T13:32:30;4.68;;;3.67;;
38853;SDS011;24606;51.992;4.198;2023-06-19T13:37:34;5.28;;;3.85;;
38853;SDS011;24606;51.992;4.198;2023-06-19T13:42:39;7.35;;;3.92;;
38853;SDS011;24606;51.992;4.198;2023-06-19T13:47:40;7.32;;;4.05;;
38853;SDS011;24606;51.992;4.198;2023-06-19T13:52:44;9.88;;;4.38;;
38853;SDS011;24606;51.992;4.198;2023-06-19T13:57:46;10.57;;;5.00;;
38853;SDS011;24606;51.992;4.198;2023-06-19T14:02:47;8.15;;;4.68;;
38853;SDS011;24606;51.992;4.198;2023-06-19T14:07:51;5.75;;;3.50;;
38853;SDS011;24606;51.992;4.198;2023-06-19T14:12:53;11.38;;;5.22;;
38853;SDS011;24606;51.992;4.198;2023-06-19T14:17:55;8.10;;;4.32;;
38853;SDS011;24606;51.992;4.198;2023-06-19T14:22:58;7.85;;;4.70;;
38853;SDS011;24606;51.992;4.198;2023-06-19T14:28:00;5.85;;;3.25;;
38853;SDS011;24606;51.992;4.198;2023-06-19T14:33:02;7.05;;;4.20;;
38853;SDS011;24606;51.992;4.198;2023-06-19T14:38:05;18.60;;;4.00;;
38853;SDS011;24606;51.992;4.198;2023-06-19T14:43:07;10.52;;;4.35;;
38853;SDS011;24606;51.992;4.198;2023-06-19T14:48:09;5.15;;;3.10;;
38853;SDS011;24606;51.992;4.198;2023-06-19T14:53:13;7.20;;;3.78;;
38853;SDS011;24606;51.992;4.198;2023-06-19T14:58:15;6.43;;;3.90;;
38853;SDS011;24606;51.992;4.198;2023-06-19T15:03:16;6.88;;;3.72;;
38853;SDS011;24606;51.992;4.198;2023-06-19T15:08:20;5.90;;;3.70;;
38853;SDS011;24606;51.992;4.198;2023-06-19T15:13:23;5.60;;;3.05;;
38853;SDS011;24606;51.992;4.198;2023-06-19T15:18:25;10.48;;;3.67;;
38853;SDS011;24606;51.992;4.198;2023-06-19T15:23:29;6.47;;;3.40;;
38853;SDS011;24606;51.992;4.198;2023-06-19T15:28:32;7.43;;;3.13;;
38853;SDS011;24606;51.992;4.198;2023-06-19T15:33:34;6.85;;;3.38;;
38853;SDS011;24606;51.992;4.198;2023-06-19T15:38:37;5.22;;;2.47;;
38853;SDS011;24606;51.992;4.198;2023-06-19T15:43:39;3.85;;;2.30;;
38853;SDS011;24606;51.992;4.198;2023-06-19T15:48:42;3.03;;;2.35;;
38853;SDS011;24606;51.992;4.198;2023-06-19T15:53:45;4.32;;;2.42;;
38853;SDS011;24606;51.992;4.198;2023-06-19T15:58:47;4.53;;;2.50;;
38853;SDS011;24606;51.992;4.198;2023-06-19T16:03:51;6.38;;;2.90;;
38853;SDS011;24606;51.992;4.198;2023-06-19T16:08:54;4.63;;;2.65;;
38853;SDS011;24606;51.992;4.198;2023-06-19T16:13:57;5.65;;;2.88;;
38853;SDS011;24606;51.992;4.198;2023-06-19T16:18:59;3.20;;;2.53;;
38853;SDS011;24606;51.992;4.198;2023-06-19T16:24:03;4.07;;;2.63;;
38853;SDS011;24606;51.992;4.198;2023-06-19T16:29:05;4.60;;;2.00;;
38853;SDS011;24606;51.992;4.198;2023-06-19T16:34:07;3.17;;;2.30;;
38853;SDS011;24606;51.992;4.198;2023-06-19T16:39:10;4.38;;;2.20;;
38853;SDS011;24606;51.992;4.198;2023-06-19T16:44:14;4.43;;;2.33;;
38853;SDS011;24606;51.992;4.198;2023-06-19T16:49:17;4.32;;;2.13;;
38853;SDS011;24606;51.992;4.198;2023-06-19T16:54:22;5.00;;;2.47;;
38853;SDS011;24606;51.992;4.198;2023-06-19T16:59:23;4.25;;;2.28;;
38853;SDS011;24606;51.992;4.198;2023-06-19T17:04:25;5.57;;;2.50;;
38853;SDS011;24606;51.992;4.198;2023-06-19T17:09:30;4.20;;;2.60;;
38853;SDS011;24606;51.992;4.198;2023-06-19T17:14:32;3.42;;;2.17;;
38853;SDS011;24606;51.992;4.198;2023-06-19T17:19:33;4.28;;;2.00;;
38853;SDS011;24606;51.992;4.198;2023-06-19T17:24:37;3.95;;;2.20;;
38853;SDS011;24606;51.992;4.198;2023-06-19T17:29:40;7.28;;;2.63;;
38853;SDS011;24606;51.992;4.198;2023-06-19T17:34:41;5.40;;;2.35;;
38853;SDS011;24606;51.992;4.198;2023-06-19T17:39:45;3.15;;;2.10;;
38853;SDS011;24606;51.992;4.198;2023-06-19T17:44:47;3.20;;;1.80;;
38853;SDS011;24606;51.992;4.198;2023-06-19T17:49:48;2.78;;;2.17;;
38853;SDS011;24606;51.992;4.198;2023-06-19T17:54:52;3.03;;;2.10;;
38853;SDS011;24606;51.992;4.198;2023-06-19T17:59:54;3.13;;;2.05;;
38853;SDS011;24606;51.992;4.198;2023-06-19T18:04:56;3.65;;;2.28;;
38853;SDS011;24606;51.992;4.198;2023-06-19T18:09:59;3.13;;;2.17;;
38853;SDS011;24606;51.992;4.198;2023-06-19T18:15:01;3.30;;;1.95;;
38853;SDS011;24606;51.992;4.198;2023-06-19T18:20:04;3.33;;;1.98;;
38853;SDS011;24606;51.992;4.198;2023-06-19T18:25:08;2.70;;;1.88;;
38853;SDS011;24606;51.992;4.198;2023-06-19T18:30:11;4.88;;;2.53;;
38853;SDS011;24606;51.992;4.198;2023-06-19T18:35:13;2.92;;;2.15;;
38853;SDS011;24606;51.992;4.198;2023-06-19T18:40:16;2.65;;;1.92;;
38853;SDS011;24606;51.992;4.198;2023-06-19T18:45:18;5.00;;;2.40;;
38853;SDS011;24606;51.992;4.198;2023-06-19T18:50:20;3.00;;;2.22;;
38853;SDS011;24606;51.992;4.198;2023-06-19T18:55:23;2.50;;;2.05;;
38853;SDS011;24606;51.992;4.198;2023-06-19T19:00:26;4.57;;;2.30;;
38853;SDS011;24606;51.992;4.198;2023-06-19T19:05:27;5.35;;;2.25;;
38853;SDS011;24606;51.992;4.198;2023-06-19T19:10:32;3.28;;;2.00;;
38853;SDS011;24606;51.992;4.198;2023-06-19T19:15:34;3.42;;;2.30;;
38853;SDS011;24606;51.992;4.198;2023-06-19T19:20:36;3.78;;;2.50;;
38853;SDS011;24606;51.992;4.198;2023-06-19T19:25:40;3.95;;;1.85;;
38853;SDS011;24606;51.992;4.198;2023-06-19T19:30:43;3.33;;;2.35;;
38853;SDS011;24606;51.992;4.198;2023-06-19T19:35:45;4.55;;;2.20;;
38853;SDS011;24606;51.992;4.198;2023-06-19T19:40:48;6.00;;;2.35;;
38853;SDS011;24606;51.992;4.198;2023-06-19T19:45:50;6.78;;;2.80;;
38853;SDS011;24606;51.992;4.198;2023-06-19T19:50:53;6.65;;;2.80;;
38853;SDS011;24606;51.992;4.198;2023-06-19T19:55:57;8.30;;;2.72;;
38853;SDS011;24606;51.992;4.198;2023-06-19T20:00:58;9.73;;;2.92;;
38853;SDS011;24606;51.992;4.198;2023-06-19T20:06:00;9.40;;;3.03;;
38853;SDS011;24606;51.992;4.198;2023-06-19T20:11:04;8.82;;;2.55;;
38853;SDS011;24606;51.992;4.198;2023-06-19T20:16:07;10.30;;;3.05;;
38853;SDS011;24606;51.992;4.198;2023-06-19T20:21:10;11.57;;;3.42;;
38853;SDS011;24606;51.992;4.198;2023-06-19T20:26:13;11.55;;;3.53;;
38853;SDS011;24606;51.992;4.198;2023-06-19T20:31:15;8.98;;;3.50;;
38853;SDS011;24606;51.992;4.198;2023-06-19T20:36:17;12.40;;;3.95;;
38853;SDS011;24606;51.992;4.198;2023-06-19T20:41:22;14.93;;;3.70;;
38853;SDS011;24606;51.992;4.198;2023-06-19T20:46:25;11.43;;;3.55;;
38853;SDS011;24606;51.992;4.198;2023-06-19T20:51:27;13.82;;;4.15;;
38853;SDS011;24606;51.992;4.198;2023-06-19T20:56:31;8.15;;;3.00;;
38853;SDS011;24606;51.992;4.198;2023-06-19T21:01:33;8.15;;;2.97;;
38853;SDS011;24606;51.992;4.198;2023-06-19T21:06:35;7.80;;;2.90;;
38853;SDS011;24606;51.992;4.198;2023-06-19T21:11:38;8.02;;;3.33;;
38853;SDS011;24606;51.992;4.198;2023-06-19T21:16:40;7.35;;;3.22;;
38853;SDS011;24606;51.992;4.198;2023-06-19T21:21:42;5.75;;;2.72;;
38853;SDS011;24606;51.992;4.198;2023-06-19T21:26:46;6.65;;;2.42;;
38853;SDS011;24606;51.992;4.198;2023-06-19T21:31:48;10.60;;;3.20;;
38853;SDS011;24606;51.992;4.198;2023-06-19T21:36:50;5.13;;;2.70;;
38853;SDS011;24606;51.992;4.198;2023-06-19T21:41:53;9.25;;;3.00;;
38853;SDS011;24606;51.992;4.198;2023-06-19T21:46:55;5.90;;;2.70;;
38853;SDS011;24606;51.992;4.198;2023-06-19T21:51:57;8.13;;;2.38;;
38853;SDS011;24606;51.992;4.198;2023-06-19T21:57:00;4.55;;;2.15;;
38853;SDS011;24606;51.992;4.198;2023-06-19T22:02:02;6.25;;;2.53;;
38853;SDS011;24606;51.992;4.198;2023-06-19T22:07:05;4.55;;;2.58;;
38853;SDS011;24606;51.992;4.198;2023-06-19T22:12:09;5.38;;;2.45;;
38853;SDS011;24606;51.992;4.198;2023-06-19T22:17:11;5.00;;;2.45;;
38853;SDS011;24606;51.992;4.198;2023-06-19T22:22:13;4.57;;;2.53;;
38853;SDS011;24606;51.992;4.198;2023-06-19T22:27:16;5.05;;;2.40;;
38853;SDS011;24606;51.992;4.198;2023-06-19T22:32:18;3.30;;;2.38;;
38853;SDS011;24606;51.992;4.198;2023-06-19T22:37:20;3.40;;;2.45;;
38853;SDS011;24606;51.992;4.198;2023-06-19T22:42:23;2.83;;;2.28;;
38853;SDS011;24606;51.992;4.198;2023-06-19T22:47:25;5.47;;;2.40;;
38853;SDS011;24606;51.992;4.198;2023-06-19T22:52:27;4.55;;;2.40;;
38853;SDS011;24606;51.992;4.198;2023-06-19T22:57:30;4.82;;;2.60;;
38853;SDS011;24606;51.992;4.198;2023-06-19T23:02:34;4.40;;;2.58;;
38853;SDS011;24606;51.992;4.198;2023-06-19T23:07:36;5.25;;;2.50;;
38853;SDS011;24606;51.992;4.198;2023-06-19T23:12:39;5.95;;;2.35;;
38853;SDS011;24606;51.992;4.198;2023-06-19T23:17:41;4.60;;;2.35;;
38853;SDS011;24606;51.992;4.198;2023-06-19T23:22:43;3.83;;;2.60;;
38853;SDS011;24606;51.992;4.198;2023-06-19T23:27:49;6.13;;;2.42;;
38853;SDS011;24606;51.992;4.198;2023-06-19T23:32:53;5.40;;;2.42;;
38853;SDS011;24606;51.992;4.198;2023-06-19T23:37:55;4.45;;;2.40;;
38853;SDS011;24606;51.992;4.198;2023-06-19T23:42:58;3.08;;;2.35;;
38853;SDS011;24606;51.992;4.198;2023-06-19T23:48:00;3.72;;;2.90;;
38853;SDS011;24606;51.992;4.198;2023-06-19T23:53:02;3.45;;;2.70;;
38853;SDS011;24606;51.992;4.198;2023-06-19T23:58:05;3.95;;;2.88;;
